Flight Track Log - Related Links

Times and Time Zones

All times are in EDT time to prevent confusion due to time zone crossing. See the N88JA flight status page for this flight to view local times or setup timezone preferences in your user account.

Time Position Orientation Groundspeed Altitude Reporting Facility
EDT Latitude Longitude Course Direction KTS MPH feet Rate Location/Type
Thu 11:55:57 PM 41.2472 -82.2594 225° Southwest 104 120 4,500  Level Cleveland Center
Thu 11:56:57 PM 41.2261 -82.2864 224° Southwest 104 120 4,500  Level Cleveland Center
Thu 11:57:57 PM 41.2047 -82.3108 221° Southwest 109 125 4,500  Level Cleveland Center
Thu 11:58:57 PM 41.1856 -82.3322 220° Southwest 109 125 4,500 50 Level Cleveland Center
Thu 11:59:57 PM 41.1644 -82.3567 221° Southwest 109 125 4,600 50 Climbing Cleveland Center
Fri 12:00:57 AM 41.1433 -82.3836 224° Southwest 109 125 4,600 -50 Level Cleveland Center
Fri 12:01:00 AM 40.8295 -82.6308 225° Southwest  Level Estimated
Fri 12:01:57 AM 41.1219 -82.4050 217° Southwest 109 125 4,500  Level Cleveland Center
Fri 12:02:57 AM 41.1008 -82.4292 221° Southwest 109 125 4,500  Level Cleveland Center
Fri 12:03:57 AM 41.0775 -82.4533 218° Southwest 109 125 4,500  Level Cleveland Center
Fri 12:04:57 AM 41.0561 -82.4775 220° Southwest 109 125 4,500  Level Cleveland Center
Fri 12:05:57 AM 41.0350 -82.5044 224° Southwest 109 125 4,500 50 Level Cleveland Center
Fri 12:06:57 AM 41.0136 -82.5342 226° Southwest 109 125 4,600  Climbing Cleveland Center
Fri 12:07:57 AM 40.9983 -82.5639 236° Southwest 102 117 4,500 -50 Descending Cleveland Center
Fri 12:08:57 AM 40.9792 -82.5908 227° Southwest 102 117 4,500  Level Cleveland Center
Fri 12:09:57 AM 40.9619 -82.6206 233° Southwest 102 117 4,500 50 Level Cleveland Center
Fri 12:10:57 AM 40.9447 -82.6503 233° Southwest 107 123 4,600 50 Climbing Cleveland Center
Fri 12:11:57 AM 40.9256 -82.6772 227° Southwest 107 123 4,600  Level Cleveland Center
Fri 12:12:57 AM 40.9064 -82.7042 227° Southwest 107 123 4,600  Level Cleveland Center
Fri 12:13:57 AM 40.8828 -82.7308 220° Southwest 107 123 4,600  Level Cleveland Center
Fri 12:14:31 AM 40.8742 -82.7442 230° Southwest 104 120 4,600  Level Indianapolis Center
Fri 12:15:32 AM 40.8528 -82.7717 224° Southwest 106 122 4,600  Level Indianapolis Center
Fri 12:16:33 AM 40.8306 -82.7961 220° Southwest 105 121 4,600 -49 Level Indianapolis Center
Fri 12:17:35 AM 40.8117 -82.8236 228° Southwest 101 116 4,500  Descending Indianapolis Center
Fri 12:18:36 AM 40.7953 -82.8522 233° Southwest 98 113 4,600 49 Climbing Indianapolis Center
Fri 12:19:37 AM 40.7839 -82.8844 245° Southwest 97 112 4,600  Level Indianapolis Center
Fri 12:20:38 AM 40.7775 -82.9200 257° West 98 113 4,600  Level Indianapolis Center
Fri 12:21:40 AM 40.7808 -82.9519 278° West 91 105 4,600 -49 Level Indianapolis Center
Fri 12:22:41 AM 40.7819 -82.9842 273° West 88 101 4,500 -49 Descending Indianapolis Center
Fri 12:23:42 AM 40.7872 -83.0175 282° West 90 104 4,500  Level Indianapolis Center
Fri 12:24:43 AM 40.7886 -83.0508 273° West 91 105 4,500 49 Level Indianapolis Center
Fri 12:25:44 AM 40.7819 -83.0881 257° West 90 104 4,600 49 Climbing Indianapolis Center
Fri 12:26:46 AM 40.7806 -83.1189 267° West 86 99 4,600 49 Level Indianapolis Center
Fri 12:27:47 AM 40.7850 -83.1508 280° West 86 99 4,700  Climbing Indianapolis Center
Fri 12:28:48 AM 40.7856 -83.1839 271° West 88 101 4,600 -49 Descending Indianapolis Center
Fri 12:29:49 AM 40.7853 -83.2172 269° West 90 104 4,600  Level Indianapolis Center
Fri 12:30:50 AM 40.7819 -83.2517 263° West 94 108 4,600  Level Indianapolis Center
Fri 12:31:51 AM 40.7786 -83.2811 262° West 87 100 4,600 -49 Level Indianapolis Center
Fri 12:32:52 AM 40.7789 -83.3147 271° West 90 104 4,500 -49 Descending Indianapolis Center
Fri 12:33:53 AM 40.7744 -83.3478 260° West 91 105 4,500  Level Indianapolis Center
Fri 12:34:54 AM 40.7700 -83.3781 259° West 87 100 4,500  Level Indianapolis Center
Fri 12:35:55 AM 40.7667 -83.4083 262° West 83 96 4,500 49 Level Indianapolis Center
Fri 12:36:56 AM 40.7642 -83.4403 264° West 85 98 4,600 49 Climbing Indianapolis Center
Fri 12:37:57 AM 40.7581 -83.4722 256° West 88 101 4,600 -49 Level Indianapolis Center
Fri 12:38:58 AM 40.7522 -83.5050 257° West 90 104 4,500 -49 Descending Indianapolis Center
Fri 12:39:59 AM 40.7497 -83.5389 264° West 92 106 4,500  Level Indianapolis Center
Fri 12:41:00 AM 40.7408 -83.5700 249° West 91 105 4,500  Level Indianapolis Center
Fri 12:42:01 AM 40.7325 -83.6014 251° West 90 104 4,500 49 Level Indianapolis Center
Fri 12:43:02 AM 40.7233 -83.6353 250° West 96 110 4,600 49 Climbing Indianapolis Center
Fri 12:44:03 AM 40.7128 -83.6706 248° West 90 104 4,600 -49 Level Indianapolis Center
Fri 12:45:04 AM 40.7025 -83.7039 248° West 95 109 4,500 -49 Descending Indianapolis Center
Fri 12:46:05 AM 40.6956 -83.7353 254° West 91 105 4,500  Level Indianapolis Center
Fri 12:47:06 AM 40.6894 -83.7711 257° West 96 110 4,500  Level Indianapolis Center
Fri 12:48:07 AM 40.6858 -83.8031 262° West 92 106 4,500  Level Indianapolis Center
Fri 12:49:08 AM 40.6800 -83.8361 257° West 91 105 4,500  Level Indianapolis Center
Fri 12:50:09 AM 40.6750 -83.8714 259° West 96 110 4,500  Level Indianapolis Center
Fri 12:51:09 AM 40.6536 -83.8919 216° Southwest 109 125 4,500  Level Indianapolis Center
Fri 12:52:14 AM 40.6239 -83.9178 213° Southwest 106 122 4,500  Level Indianapolis Center
Fri 12:53:11 AM 40.6033 -83.9331 209° Southwest 106 122 4,500  Level Indianapolis Center
Fri 12:54:12 AM 40.5814 -83.9553 218° Southwest 98 113 4,500  Level Indianapolis Center
Fri 12:55:13 AM 40.5544 -83.9703 203° Southwest 106 122 4,500 -51 Level Indianapolis Center
Fri 12:56:10 AM 40.5261 -83.9889 207° Southwest 103 119 4,400  Descending Indianapolis Center
Fri 12:57:11 AM 40.4997 -83.9981 195° South 99 114 4,500 50 Climbing Indianapolis Center
Fri 12:58:11 AM 40.4731 -84.0125 202° Southwest 102 117 4,500  Level Indianapolis Center
Fri 12:59:16 AM 40.4572 -84.0386 231° Southwest 100 115 4,500  Level Indianapolis Center
Fri 01:00:17 AM 40.4419 -84.0653 233° Southwest 94 108 4,500  Level Indianapolis Center
Fri 01:01:13 AM 40.4247 -84.0947 232° Southwest 92 106 4,500  Level Indianapolis Center
Fri 01:02:14 AM 40.4056 -84.1161 220° Southwest 95 109 4,500  Level Indianapolis Center
Fri 01:03:14 AM 40.3769 -84.1275 197° South 109 125 4,500  Level Indianapolis Center
Fri 01:04:09 AM 40.3531 -84.1342 192° South 105 121 4,500 -47 Level Indianapolis Center
Fri 01:05:21 AM 40.3211 -84.1422 191° South 103 119 4,400  Descending Indianapolis Center
Fri 01:06:10 AM 40.2944 -84.1511 194° South 100 115 4,500 52 Climbing Indianapolis Center
Fri 01:07:17 AM 40.2642 -84.1594 192° South 100 115 4,500  Level Indianapolis Center
Fri 01:08:11 AM 40.2400 -84.1689 197° South 101 116 4,500  Level Indianapolis Center
Fri 01:09:12 AM 40.2122 -84.1750 190° South 104 120 4,500  Level Indianapolis Center
Fri 01:10:13 AM 40.1819 -84.1806 188° South 102 117 4,500  Level Indianapolis Center
Fri 01:11:13 AM 40.1542 -84.1864 189° South 103 119 4,500  Level Indianapolis Center
Fri 01:12:14 AM 40.1242 -84.1894 184° South 108 124 4,500  Level Indianapolis Center
Fri 01:13:20 AM 40.0939 -84.1975 192° South 101 116 4,500 47 Level Indianapolis Center
Fri 01:14:21 AM 40.0664 -84.2008 185° South 98 113 4,600 148 Climbing Indianapolis Center
Fri 01:15:22 AM 40.0389 -84.2014 181° South 95 109 4,800 99 Climbing Indianapolis Center
Fri 01:16:22 AM 40.0117 -84.1994 177° South 102 117 4,800 -50 Level Indianapolis Center
Fri 01:17:23 AM 39.9819 -84.2022 184° South 107 123 4,700 -157 Descending Indianapolis Center
Fri 01:18:17 AM 39.9542 -84.2056 185° South 111 128 4,500 -157 Descending Indianapolis Center
Fri 01:19:18 AM 39.9222 -84.2106 187° South 113 130 4,400 -98 Descending Indianapolis Center
Fri 01:20:19 AM 39.8928 -84.2081 176° South 107 123 4,300 -99 Descending Indianapolis Center
Fri 01:21:19 AM 39.8619 -84.2025 172° South 110 127 4,200 -189 Descending Indianapolis Center
Fri 01:22:26 AM 39.8244 -84.1986 175° South 118 136 3,900 -281 Descending Indianapolis Center
Fri 01:23:27 AM 39.7933 -84.1958 176° South 118 136 3,600 -397 Descending Indianapolis Center
Fri 01:24:27 AM 39.7614 -84.1983 183° South 111 128 3,100 -347 Descending Indianapolis Center
Fri 01:25:28 AM 39.7319 -84.1986 180° South 112 129 2,900 -50 Descending Indianapolis Center
Fri 01:26:28 AM 39.7069 -84.1750 144° Southeast 111 128 3,000 -189 Climbing Indianapolis Center
Fri 01:27:35 AM 39.6775 -84.1764 182° South 108 124 2,500 -567 Descending Indianapolis Center
Fri 01:28:35 AM 39.6525 -84.1903 203° Southwest 103 119 1,800 -446 Descending Indianapolis Center
Fri 01:29:36 AM 39.6281 -84.2028 201° Southwest 99 114 1,600 -197 Descending Indianapolis Center

Login

Don't have an account? Register now (free) for customized features, flight alerts, and more!